Main page
METAR-TAF:

METAR-TAF

Airports :

London-Southend, England

London Southend Airport

latitude: 51-34N, longitude: 000-42E, elevation: 15 m

Current weather observation

The report was made 57 minutes ago, at 09:50 UTC
Wind 5 kt from the Northwest
Temperature 3°C
Humidity 87%
Pressure 1028 hPa
Visibility 10 km or more
no clouds below 1500 m and no cumulonimbus

METAR: EGMC 180950Z 32005KT CAVOK 03/01 Q1028

Time: 10:47 (10:47 UTC)

Forecast

The report was made 2 hours and 46 minutes ago, at 08:01 UTC
Forecast valid from 18 at 09 UTC to 18 at 18 UTC
Wind 7 kt from the Northwest
Visibility 10 km or more
Few clouds at a height of 3000 ft
Becoming
from 18 at 14 UTC to 18 at 16 UTC
Visibility: 7000 m
Probability 30%
from 18 at 16 UTC to 18 at 18 UTC
Visibility: 2000 m
mist

TAF: EGMC 180801Z 1809/1818 32007KT 9999 FEW030 BECMG 1814/1816 7000 PROB30 1816/1818 2000 BR

Weather observations and forecasts of more than 4000 airports (METAR and TAF reports).

The available stations are represented by yellow and red dots on the map.

Hover mouse over dot to see the name of the station.

Then click to see weather observations and forecasts.

To change the map : click on the green buttons with a black cross to zoom in, on the green button with a dash to zoom out, or on the green arrows for adjacent maps.


METAR-TAF: